Time;durP1;ratioP1;P1;durP2;ratioP2;P2;SDS_P1;SDS_P2;PMS_P1;PMS_P2;Temp;Humidity;BMP_temperature;BMP_pressure;BME280_temperature;BME280_humidity;BME280_pressure;Samples;Min_cycle;Max_cycle;Signal;HPM_P1;HPM_P2
2022/05/23 00:00:57;;;;;;;;;;;15.80;99.90;;;;;;4991059;28;20113;-64
2022/05/23 00:03:26;;;;;;;12.43;7.97;;;15.80;99.90;;;;;;4987485;28;20024;-64
2022/05/23 00:05:54;;;;;;;9.75;7.00;;;15.80;99.90;;;;;;4991501;28;20073;-64
2022/05/23 00:08:21;;;;;;;16.10;8.00;;;15.70;99.90;;;;;;4991456;28;20348;-64
2022/05/23 00:10:49;;;;;;;19.75;8.00;;;15.70;99.90;;;;;;4991249;28;20050;-64
2022/05/23 00:13:15;;;;;;;;;;;15.60;99.90;;;;;;4992362;28;20041;-63
2022/05/23 00:15:42;;;;;;;11.60;7.53;;;15.60;99.90;;;;;;4989938;28;19925;-64
2022/05/23 00:18:09;;;;;;;11.82;7.22;;;15.60;99.90;;;;;;4991148;28;20499;-64
2022/05/23 00:20:36;;;;;;;;;;;15.60;99.90;;;;;;4990281;28;20060;-64
2022/05/23 00:23:03;;;;;;;12.55;7.78;;;15.60;99.90;;;;;;4971125;28;19926;-64
2022/05/23 00:25:29;;;;;;;;;;;15.50;99.90;;;;;;4973231;28;20057;-65
2022/05/23 00:27:57;;;;;;;13.30;7.63;;;15.50;99.90;;;;;;4971231;28;19922;-64
2022/05/23 00:30:26;;;;;;;21.23;8.60;;;15.50;99.90;;;;;;4971420;28;20097;-65
2022/05/23 00:35:44;;;;;;;16.77;8.20;;;15.40;99.90;;;;;;4971379;28;20042;-64
2022/05/23 00:38:11;;;;;;;10.90;7.88;;;15.40;99.90;;;;;;4969718;28;20281;-64
2022/05/23 00:40:38;;;;;;;;;;;15.40;99.90;;;;;;4977716;28;20048;-65
2022/05/23 00:43:16;;;;;;;15.80;7.18;;;15.40;99.90;;;;;;4991383;28;20295;-64
2022/05/23 00:45:45;;;;;;;14.27;6.70;;;15.50;99.90;;;;;;4990843;28;20046;-64
2022/05/23 00:48:14;;;;;;;18.90;6.75;;;15.50;99.90;;;;;;4990879;28;20060;-64
2022/05/23 00:50:45;;;;;;;21.13;7.90;;;15.60;99.90;;;;;;4990937;28;20045;-65
2022/05/23 00:53:13;;;;;;;19.27;7.00;;;15.60;99.90;;;;;;4991718;28;20054;-64
2022/05/23 00:55:47;;;;;;;17.38;7.07;;;15.60;99.90;;;;;;4991076;28;20108;-64
2022/05/23 00:58:20;;;;;;;22.98;7.70;;;15.70;99.90;;;;;;4990886;28;20150;-65
2022/05/23 01:00:47;;;;;;;20.88;7.82;;;15.70;99.90;;;;;;4989353;28;20440;-64
2022/05/23 01:03:17;;;;;;;9.32;5.85;;;15.80;99.90;;;;;;4984972;28;20041;-64
2022/05/23 01:05:45;;;;;;;9.45;6.50;;;15.80;99.90;;;;;;4990387;28;20371;-64
2022/05/23 01:08:16;;;;;;;13.63;6.68;;;15.80;99.90;;;;;;4988350;28;20347;-64
2022/05/23 01:10:45;;;;;;;14.55;6.32;;;15.80;99.90;;;;;;4989607;28;20046;-64
2022/05/23 01:13:13;;;;;;;16.88;7.95;;;15.80;99.90;;;;;;4989535;28;20391;-64
2022/05/23 01:15:44;;;;;;;13.27;6.57;;;15.80;99.90;;;;;;5005892;28;20050;-64
2022/05/23 01:18:12;;;;;;;17.27;6.82;;;15.80;99.90;;;;;;4987927;28;20046;-64
2022/05/23 01:20:39;;;;;;;19.27;7.75;;;15.70;99.90;;;;;;4988390;28;20096;-64
2022/05/23 01:23:24;;;;;;;17.42;6.53;;;15.70;99.90;;;;;;4969008;28;20104;-64
2022/05/23 01:26:14;;;;;;;19.25;6.80;;;15.70;99.90;;;;;;4968286;28;20069;-64
2022/05/23 01:28:47;;;;;;;12.75;5.68;;;15.70;99.90;;;;;;4969023;28;20060;-63
2022/05/23 01:31:32;;;;;;;23.55;7.13;;;15.60;99.90;;;;;;4971364;28;20064;-64
2022/05/23 01:34:09;;;;;;;17.45;7.97;;;15.60;99.90;;;;;;4954436;28;20153;-64
2022/05/23 01:36:46;;;;;;;17.30;6.38;;;15.60;99.90;;;;;;4969011;28;20058;-64
2022/05/23 01:39:13;;;;;;;17.45;6.90;;;15.60;99.90;;;;;;4988304;28;20137;-64
2022/05/23 01:41:40;;;;;;;;;;;15.60;99.90;;;;;;4986421;28;20050;-64
2022/05/23 01:44:08;;;;;;;20.90;7.05;;;15.60;99.90;;;;;;4992555;28;19925;-64
2022/05/23 01:46:38;;;;;;;15.10;6.00;;;15.50;99.90;;;;;;4992601;28;20550;-64
2022/05/23 01:49:17;;;;;;;14.98;6.18;;;15.50;99.90;;;;;;4992980;28;20080;-64
2022/05/23 01:51:45;;;;;;;15.57;5.93;;;15.50;99.90;;;;;;4993802;28;20061;-64
2022/05/23 01:54:14;;;;;;;15.50;6.35;;;15.60;99.90;;;;;;4992279;28;20057;-64
2022/05/23 01:56:44;;;;;;;15.65;6.72;;;15.60;99.90;;;;;;4992531;28;20633;-64
2022/05/23 02:02:03;;;;;;;21.25;6.68;;;15.60;99.90;;;;;;4989191;28;20039;-64
2022/05/23 02:04:37;;;;;;;12.55;6.15;;;15.60;99.90;;;;;;4989843;28;20038;-64
2022/05/23 02:07:08;;;;;;;12.25;6.35;;;15.60;99.90;;;;;;4992977;28;20439;-64
2022/05/23 02:09:36;;;;;;;15.00;6.15;;;15.50;99.90;;;;;;4991648;28;20044;-63
2022/05/23 02:12:13;;;;;;;18.33;7.35;;;15.50;99.90;;;;;;4992439;28;20089;-64
2022/05/23 02:14:39;;;;;;;19.88;5.70;;;15.50;99.90;;;;;;4991659;28;20057;-64
2022/05/23 02:17:19;;;;;;;25.25;6.93;;;15.50;99.90;;;;;;4980716;28;20046;-64
2022/05/23 02:19:46;;;;;;;21.88;6.65;;;15.50;99.90;;;;;;4973046;28;20845;-63
2022/05/23 02:22:17;;;;;;;14.90;6.18;;;15.50;99.90;;;;;;4991551;28;20049;-63
2022/05/23 02:24:44;;;;;;;;;;;15.60;99.90;;;;;;4992743;28;20050;-65
2022/05/23 02:27:11;;;;;;;15.18;6.00;;;15.60;99.90;;;;;;4991712;28;20272;-64
2022/05/23 02:29:40;;;;;;;21.75;6.63;;;15.60;99.90;;;;;;4991724;28;20072;-64
2022/05/23 02:32:08;;;;;;;16.48;5.55;;;15.60;99.90;;;;;;4991772;28;20073;-64
2022/05/23 02:34:35;;;;;;;19.85;6.45;;;15.50;99.90;;;;;;4991977;28;20104;-64
2022/05/23 02:37:04;;;;;;;14.63;5.78;;;15.50;99.90;;;;;;4990921;28;20590;-64
2022/05/23 02:39:42;;;;;;;17.80;5.47;;;15.50;99.90;;;;;;4992348;28;20050;-64
2022/05/23 02:42:15;;;;;;;17.42;6.32;;;15.50;99.90;;;;;;4991535;28;20050;-64
2022/05/23 02:44:42;;;;;;;13.63;5.90;;;15.50;99.90;;;;;;4993444;28;20046;-64
2022/05/23 02:47:15;;;;;;;14.35;6.35;;;15.50;99.90;;;;;;4991494;28;20042;-64
2022/05/23 02:49:42;;;;;;;22.58;6.05;;;15.50;99.90;;;;;;4976488;28;20149;-64
2022/05/23 02:52:16;;;;;;;14.48;5.50;;;15.50;99.90;;;;;;4975982;28;20164;-64
2022/05/23 02:55:00;;;;;;;14.27;5.93;;;15.50;99.90;;;;;;4991762;28;20142;-65
2022/05/23 02:57:28;;;;;;;10.77;5.60;;;15.50;99.90;;;;;;4991032;28;20176;-65
2022/05/23 02:59:55;;;;;;;15.10;5.88;;;15.50;99.90;;;;;;4992428;28;20064;-64
2022/05/23 03:05:09;;;;;;;13.52;5.13;;;15.60;99.90;;;;;;4982969;28;20559;-64
2022/05/23 03:07:36;;;;;;;11.63;6.10;;;15.60;99.90;;;;;;4973490;28;20101;-64
2022/05/23 03:10:06;;;;;;;14.00;5.90;;;15.50;99.90;;;;;;4971795;28;20065;-65
2022/05/23 03:12:36;;;;;;;14.82;5.85;;;15.60;99.90;;;;;;4972798;28;20077;-65
2022/05/23 03:15:05;;;;;;;11.90;5.22;;;15.60;99.90;;;;;;4983255;28;20057;-65
2022/05/23 03:17:34;;;;;;;21.88;6.30;;;15.50;99.90;;;;;;4979300;28;20056;-64
2022/05/23 03:20:02;;;;;;;20.30;7.10;;;15.50;99.90;;;;;;5008165;28;20060;-65
2022/05/23 03:28:02;;;;;;;8.93;5.70;;;15.50;99.90;;;;;;4972021;28;20089;-64
2022/05/23 03:30:31;;;;;;;19.50;6.32;;;15.40;99.90;;;;;;4971768;28;20051;-64
2022/05/23 03:32:59;;;;;;;10.20;5.70;;;15.40;99.90;;;;;;4972128;28;20623;-64
2022/05/23 03:35:29;;;;;;;10.27;4.88;;;15.40;99.90;;;;;;4973471;28;20105;-64
2022/05/23 03:37:57;;;;;;;22.08;6.65;;;15.40;99.90;;;;;;4972301;28;20041;-65
2022/05/23 03:40:25;;;;;;;11.32;6.00;;;15.40;99.90;;;;;;4976045;28;20046;-66
2022/05/23 03:42:56;;;;;;;19.08;5.53;;;15.40;99.90;;;;;;4975134;28;20142;-65
2022/05/23 03:45:25;;;;;;;9.85;5.75;;;15.40;99.90;;;;;;4960191;28;20053;-63
2022/05/23 03:47:53;;;;;;;24.10;5.97;;;15.40;99.90;;;;;;4975419;28;20153;-65
2022/05/23 03:50:22;;;;;;;9.63;5.63;;;15.40;99.90;;;;;;4977429;28;20451;-65
2022/05/23 03:52:50;;;;;;;24.10;6.97;;;15.40;99.90;;;;;;4976170;28;20463;-65
2022/05/23 03:55:26;;;;;;;16.08;5.45;;;15.40;99.90;;;;;;4975448;28;20069;-62
2022/05/23 03:58:09;;;;;;;12.30;5.68;;;15.40;99.90;;;;;;4976831;28;20146;-64
2022/05/23 04:00:35;;;;;;;;;;;15.40;99.90;;;;;;4992446;28;20065;-63
2022/05/23 04:03:02;;;;;;;14.32;5.85;;;15.40;99.90;;;;;;4975232;28;20005;-65
2022/05/23 04:05:30;;;;;;;9.95;5.38;;;15.40;99.90;;;;;;4958307;28;20053;-64
2022/05/23 04:08:23;;;;;;;13.27;5.53;;;15.40;99.90;;;;;;4974442;28;20421;-64
2022/05/23 04:10:53;;;;;;;10.68;5.35;;;15.50;99.90;;;;;;4975038;28;20050;-64
2022/05/23 04:13:22;;;;;;;10.07;5.85;;;15.50;99.90;;;;;;4975080;28;20137;-64
2022/05/23 04:15:49;;;;;;;15.70;6.25;;;15.50;99.90;;;;;;4974770;28;20050;-65
2022/05/23 04:18:17;;;;;;;12.43;5.50;;;15.50;99.90;;;;;;4975212;28;20790;-65
2022/05/23 04:20:46;;;;;;;11.18;6.13;;;15.50;99.90;;;;;;4974753;28;20535;-64
2022/05/23 04:23:17;;;;;;;7.93;4.90;;;15.50;99.90;;;;;;4975373;28;20511;-67
2022/05/23 04:25:47;;;;;;;13.15;5.85;;;15.60;99.90;;;;;;4975026;28;20046;-64
2022/05/23 04:28:18;;;;;;;24.38;6.55;;;15.60;99.90;;;;;;4990537;28;20310;-64
2022/05/23 04:30:45;;;;;;;14.65;5.97;;;15.60;99.90;;;;;;4975369;28;20047;-66
2022/05/23 04:36:03;;;;;;;13.73;6.50;;;15.60;99.90;;;;;;4992528;28;20499;-69
2022/05/23 04:38:38;;;;;;;13.68;7.03;;;15.60;99.90;;;;;;4990227;28;20034;-66
2022/05/23 04:41:07;;;;;;;15.30;6.35;;;15.60;99.90;;;;;;4979246;28;20041;-67
2022/05/23 04:43:53;;;;;;;18.33;6.90;;;15.60;99.90;;;;;;4996176;28;20050;-67
2022/05/23 04:46:23;;;;;;;19.20;8.48;;;15.60;99.90;;;;;;4994333;28;20502;-67
2022/05/23 04:52:23;;;;;;;16.83;8.73;;;15.80;99.90;;;;;;4994146;28;20136;-68
2022/05/23 04:54:50;;;;;;;13.32;8.23;;;15.80;99.90;;;;;;4994072;28;20566;-67
2022/05/23 04:57:17;;;;;;;20.88;7.43;;;15.80;99.90;;;;;;4995070;28;20046;-67
2022/05/23 04:59:44;;;;;;;15.98;6.45;;;15.90;99.90;;;;;;4993243;28;20111;-67
2022/05/23 05:02:20;;;;;;;14.05;7.95;;;15.90;99.90;;;;;;4994947;28;20046;-67
2022/05/23 05:04:52;;;;;;;16.42;8.48;;;15.90;99.90;;;;;;4992371;28;20053;-69
2022/05/23 05:07:19;;;;;;;11.85;7.22;;;15.90;99.90;;;;;;4982271;28;20526;-69
2022/05/23 05:09:46;;;;;;;10.15;6.38;;;15.90;99.90;;;;;;4974565;28;20121;-67
2022/05/23 05:12:13;;;;;;;12.68;6.93;;;15.90;99.90;;;;;;4971552;28;20076;-69
2022/05/23 05:14:42;;;;;;;12.98;6.88;;;16.00;99.90;;;;;;4985205;28;20050;-69
2022/05/23 05:17:11;;;;;;;12.45;7.25;;;16.00;99.90;;;;;;4993074;28;20108;-69
2022/05/23 05:19:39;;;;;;;15.95;8.50;;;16.00;99.90;;;;;;5010206;28;20530;-69
2022/05/23 05:22:29;;;;;;;15.45;8.38;;;16.10;99.90;;;;;;4968441;28;20046;-70
2022/05/23 05:25:20;;;;;;;16.75;7.90;;;16.10;99.90;;;;;;4978916;28;20433;-69
2022/05/23 05:27:55;;;;;;;14.18;6.82;;;16.10;99.90;;;;;;4974469;28;20034;-70
2022/05/23 05:30:22;;;;;;;18.00;7.88;;;16.10;99.90;;;;;;4975228;28;20324;-71
2022/05/23 05:33:02;;;;;;;11.88;6.78;;;16.20;99.90;;;;;;4974551;28;20109;-69
2022/05/23 05:35:46;;;;;;;18.63;9.00;;;16.30;99.90;;;;;;4973975;28;20530;-70
2022/05/23 05:38:26;;;;;;;21.75;7.35;;;16.40;99.90;;;;;;4989906;28;20058;-68
2022/05/23 05:41:04;;;;;;;10.18;6.28;;;16.40;99.90;;;;;;4984169;28;20066;-68
2022/05/23 05:43:38;;;;;;;15.32;7.40;;;16.50;99.90;;;;;;5009760;28;20056;-68
2022/05/23 05:46:26;;;;;;;17.00;6.80;;;16.60;99.90;;;;;;4978778;28;20149;-70
2022/05/23 05:49:16;;;;;;;15.05;6.95;;;16.70;99.90;;;;;;4994337;28;20200;-69
2022/05/23 05:51:44;;;;;;;14.63;6.20;;;16.80;99.90;;;;;;4994663;28;20100;-69
2022/05/23 05:54:39;;;;;;;15.40;7.22;;;16.90;99.90;;;;;;4994062;28;20061;-69
2022/05/23 05:57:11;;;;;;;13.60;7.03;;;17.00;99.90;;;;;;4991010;28;20580;-70
2022/05/23 05:59:40;;;;;;;11.40;6.15;;;17.10;99.90;;;;;;4989630;28;20487;-70
2022/05/23 06:02:08;;;;;;;13.98;6.85;;;17.20;99.90;;;;;;4994318;28;20050;-68
2022/05/23 06:04:37;;;;;;;15.52;7.05;;;17.40;99.90;;;;;;4981147;28;20046;-69
2022/05/23 06:13:24;;;;;;;17.52;6.63;;;18.00;99.90;;;;;;4993457;28;20543;-68
2022/05/23 06:16:11;;;;;;;12.20;6.05;;;18.10;99.90;;;;;;4963318;28;20054;-67
2022/05/23 06:18:47;;;;;;;13.40;6.35;;;18.30;99.90;;;;;;4997571;28;20481;-68
2022/05/23 06:21:15;;;;;;;9.88;5.57;;;18.50;99.90;;;;;;4981437;28;20549;-67
2022/05/23 06:23:47;;;;;;;14.68;6.07;;;18.60;99.90;;;;;;4996797;28;20377;-67
2022/05/23 06:26:26;;;;;;;14.10;5.90;;;18.80;99.90;;;;;;4996489;28;20684;-67
2022/05/23 06:29:16;;;;;;;13.18;5.53;;;18.90;99.90;;;;;;4978515;28;20057;-67
2022/05/23 06:31:46;;;;;;;13.88;5.95;;;19.10;99.90;;;;;;4998332;28;20049;-68
2022/05/23 06:34:15;;;;;;;11.00;5.93;;;19.30;99.90;;;;;;4996035;28;20534;-68
2022/05/23 06:36:44;;;;;;;16.50;6.28;;;19.40;99.90;;;;;;4995900;28;20053;-68
2022/05/23 06:39:12;;;;;;;15.50;6.20;;;19.60;99.90;;;;;;4995657;28;20046;-68
2022/05/23 06:42:05;;;;;;;11.75;5.32;;;19.80;99.90;;;;;;4997485;28;20046;-68
2022/05/23 06:44:51;;;;;;;18.85;5.82;;;19.90;99.90;;;;;;5009734;28;20057;-68
2022/05/23 06:47:54;;;;;;;17.33;7.20;;;20.10;99.90;;;;;;4974958;28;20062;-67
2022/05/23 06:50:40;;;;;;;23.67;6.03;;;20.30;99.90;;;;;;4995531;28;20786;-68
2022/05/23 06:53:15;;;;;;;7.35;5.72;;;20.50;99.90;;;;;;4996267;28;20246;-68
2022/05/23 06:55:53;;;;;;;22.48;6.63;;;20.60;99.90;;;;;;4996019;28;20070;-68
2022/05/23 06:58:22;;;;;;;13.55;5.10;;;20.70;99.90;;;;;;4993554;28;20045;-68
2022/05/23 07:00:50;;;;;;;18.70;6.13;;;20.80;99.90;;;;;;4981324;28;20042;-68
2022/05/23 07:03:22;;;;;;;14.63;6.60;;;20.80;99.90;;;;;;4974616;28;20895;-68
2022/05/23 07:14:26;;;;;;;7.95;4.95;;;21.20;99.90;;;;;;4995154;28;20060;-68
2022/05/23 07:16:56;;;;;;;17.85;6.40;;;21.30;99.90;;;;;;4995540;28;20069;-68
2022/05/23 07:19:42;;;;;;;9.00;5.35;;;21.40;99.90;;;;;;4997497;28;20534;-68
2022/05/23 07:22:12;;;;;;;12.70;6.00;;;21.50;99.90;;;;;;4993897;28;20076;-69
2022/05/23 07:24:41;;;;;;;18.83;7.10;;;21.60;99.90;;;;;;4991396;28;20049;-69
2022/05/23 07:27:13;;;;;;;15.68;6.88;;;21.70;99.90;;;;;;4992037;28;20558;-69
2022/05/23 07:29:41;;;;;;;19.58;6.68;;;21.80;99.90;;;;;;4991484;28;20054;-69
2022/05/23 07:32:12;;;;;;;11.77;5.68;;;21.80;99.90;;;;;;4992717;28;20459;-68
2022/05/23 07:34:39;;;;;;;12.73;5.95;;;21.90;99.90;;;;;;4991078;28;20050;-69
2022/05/23 07:37:09;;;;;;;13.20;5.20;;;22.00;99.90;;;;;;4992283;28;20370;-69
2022/05/23 07:39:42;;;;;;;16.75;6.47;;;22.10;99.90;;;;;;4990530;28;20054;-69
2022/05/23 07:42:29;;;;;;;19.75;5.75;;;22.30;99.90;;;;;;4993615;28;20306;-69
2022/05/23 07:44:58;;;;;;;13.30;6.22;;;22.50;99.90;;;;;;4991632;28;20113;-69
2022/05/23 07:47:26;;;;;;;10.98;5.38;;;22.70;99.90;;;;;;4974907;28;20128;-68
2022/05/23 07:50:13;;;;;;;13.38;6.50;;;22.90;99.90;;;;;;4990252;28;20049;-68
2022/05/23 08:00:30;;;;;;;13.68;5.57;;;23.00;99.90;;;;;;4990583;28;20057;-69
2022/05/23 08:01:03;;;;;;;20.73;5.95;;;23.50;99.90;;;;;;4994401;28;20045;-67
2022/05/23 08:03:30;;;;;;;15.35;6.32;;;23.60;99.90;;;;;;4994798;28;20053;-67
2022/05/23 08:06:05;;;;;;;12.70;6.00;;;23.80;99.90;;;;;;4994424;28;20141;-66
2022/05/23 08:08:34;;;;;;;16.55;5.38;;;24.00;99.90;;;;;;4993594;28;20483;-67
2022/05/23 08:11:01;;;;;;;14.63;6.40;;;24.20;99.90;;;;;;4993338;28;20050;-67
2022/05/23 08:13:38;;;;;;;13.68;6.10;;;24.50;99.90;;;;;;4993861;28;20042;-67
2022/05/23 08:16:05;;;;;;;13.88;5.50;;;24.80;99.90;;;;;;4978939;28;20046;-66
2022/05/23 08:18:33;;;;;;;16.23;5.45;;;25.10;99.90;;;;;;4977186;28;20050;-67
2022/05/23 08:21:00;;;;;;;16.83;5.60;;;25.30;99.90;;;;;;4996351;28;20433;-67
2022/05/23 08:23:34;;;;;;;15.70;5.68;;;25.50;99.90;;;;;;4993562;28;20046;-67
2022/05/23 08:26:10;;;;;;;16.00;5.68;;;25.70;99.90;;;;;;4979745;28;20050;-66
2022/05/23 08:28:43;;;;;;;25.52;7.38;;;26.00;99.90;;;;;;4993864;28;20100;-68
2022/05/23 08:31:12;;;;;;;21.77;6.45;;;26.20;99.90;;;;;;4994636;28;20409;-67
2022/05/23 08:33:48;;;;;;;15.63;6.78;;;26.30;99.90;;;;;;4980040;28;20038;-67
2022/05/23 08:36:26;;;;;;;21.05;7.15;;;26.40;99.90;;;;;;4993362;28;20524;-67
2022/05/23 08:38:53;;;;;;;25.65;6.72;;;26.60;99.90;;;;;;4994707;28;20054;-68
2022/05/23 08:41:42;;;;;;;19.45;7.47;;;26.60;99.90;;;;;;4994051;28;20046;-68
2022/05/23 08:44:48;;;;;;;18.60;6.90;;;26.70;99.90;;;;;;4995338;28;20516;-68
2022/05/23 08:47:37;;;;;;;16.50;5.88;;;26.90;99.90;;;;;;4978595;28;20108;-68
2022/05/23 08:50:16;;;;;;;13.45;5.88;;;27.00;99.90;;;;;;4978906;28;20054;-67
2022/05/23 08:53:05;;;;;;;12.38;5.05;;;27.20;99.90;;;;;;4994277;28;20045;-68
2022/05/23 08:56:02;;;;;;;15.45;4.95;;;27.50;99.90;;;;;;4993280;28;20068;-68
2022/05/23 08:58:48;;;;;;;14.50;5.05;;;27.70;96.90;;;;;;4994618;28;20081;-68
2022/05/23 09:01:20;;;;;;;14.05;6.18;;;27.90;93.90;;;;;;4994154;28;20042;-68
2022/05/23 09:04:01;;;;;;;12.85;5.85;;;28.00;97.40;;;;;;4977910;28;20336;-68
2022/05/23 09:06:34;;;;;;;13.15;4.65;;;28.00;97.30;;;;;;4995066;28;20049;-67
2022/05/23 09:09:06;;;;;;;13.98;6.18;;;28.00;97.10;;;;;;4978527;28;20046;-68
2022/05/23 09:11:37;;;;;;;18.05;5.70;;;28.10;96.60;;;;;;4994286;28;20044;-67
2022/05/23 09:14:06;;;;;;;11.05;4.63;;;28.00;96.70;;;;;;4996035;28;20053;-67
2022/05/23 09:16:40;;;;;;;22.05;5.30;;;28.10;91.70;;;;;;4995698;28;20042;-67
2022/05/23 09:19:32;;;;;;;11.95;5.13;;;28.30;87.80;;;;;;4990303;28;20682;-70
2022/05/23 09:22:19;;;;;;;12.13;4.95;;;28.60;90.40;;;;;;4990783;28;20038;-69
2022/05/23 09:24:49;;;;;;;19.63;4.85;;;28.70;83.10;;;;;;4989511;28;20254;-69
2022/05/23 09:27:30;;;;;;;14.63;4.72;;;28.70;82.00;;;;;;4990512;28;20308;-69
2022/05/23 09:29:58;;;;;;;18.27;5.22;;;28.60;82.80;;;;;;5001734;28;20322;-70
2022/05/23 09:32:29;;;;;;;18.25;5.32;;;28.50;83.10;;;;;;4987063;28;20046;-70
2022/05/23 09:35:02;;;;;;;14.27;5.70;;;28.40;85.20;;;;;;4971379;28;20140;-69
2022/05/23 09:37:37;;;;;;;15.05;5.03;;;28.30;87.00;;;;;;4975843;28;20275;-70
2022/05/23 09:40:12;;;;;;;11.75;5.45;;;28.30;87.90;;;;;;5004293;28;20041;-69
2022/05/23 09:48:24;;;;;;;12.70;4.90;;;28.50;86.20;;;;;;4990026;28;20092;-69
2022/05/23 09:51:05;;;;;;;11.90;5.05;;;28.50;86.30;;;;;;4990724;28;21058;-69
2022/05/23 09:53:52;;;;;;;14.20;5.10;;;28.50;87.50;;;;;;4993707;28;20049;-70
2022/05/23 09:56:35;;;;;;;15.93;4.97;;;28.70;86.50;;;;;;4991520;28;20046;-70
2022/05/23 09:59:21;;;;;;;14.65;5.20;;;28.90;88.10;;;;;;4990188;28;20057;-70
2022/05/23 10:01:48;;;;;;;11.30;5.05;;;29.00;84.30;;;;;;4993041;28;20046;-68
2022/05/23 10:04:21;;;;;;;8.40;4.70;;;29.10;81.60;;;;;;4993534;28;20034;-69
2022/05/23 10:06:51;;;;;;;13.10;4.70;;;29.10;84.20;;;;;;4993878;28;20042;-69
2022/05/23 10:09:34;;;;;;;15.65;5.60;;;29.20;77.80;;;;;;4985132;28;20328;-70
2022/05/23 10:12:22;;;;;;;17.02;4.65;;;29.40;70.60;;;;;;4984668;28;20100;-69
2022/05/23 10:14:52;;;;;;;11.00;4.15;;;29.50;70.00;;;;;;4994324;28;20056;-70
2022/05/23 10:17:33;;;;;;;16.95;5.07;;;29.50;67.00;;;;;;4992859;28;20050;-68
2022/05/23 10:20:23;;;;;;;13.18;4.80;;;29.50;65.70;;;;;;4992949;28;20104;-68
2022/05/23 10:23:04;;;;;;;19.88;4.75;;;29.40;65.10;;;;;;4992004;28;20397;-69
2022/05/23 10:25:41;;;;;;;17.70;5.07;;;29.20;63.20;;;;;;5009043;28;20128;-69
2022/05/23 10:28:13;;;;;;;13.18;4.35;;;29.10;64.90;;;;;;4995144;28;20045;-68
2022/05/23 10:30:47;;;;;;;9.65;5.13;;;28.90;68.60;;;;;;4992758;28;20128;-69
2022/05/23 10:33:15;;;;;;;15.45;6.95;;;28.80;68.20;;;;;;4994855;28;20302;-69
2022/05/23 10:35:56;;;;;;;13.02;7.45;;;28.60;69.30;;;;;;4991911;28;20136;-70
2022/05/23 10:44:44;;;;;;;17.90;5.63;;;28.10;71.00;;;;;;4994594;28;20696;-69
2022/05/23 10:47:32;;;;;;;11.57;5.50;;;28.10;72.10;;;;;;4985439;28;20415;-68
2022/05/23 10:50:03;;;;;;;14.73;6.00;;;28.20;72.00;;;;;;4994504;28;20058;-69
2022/05/23 10:52:58;;;;;;;17.58;6.00;;;28.50;71.30;;;;;;4994534;28;20494;-69
2022/05/23 10:55:49;;;;;;;12.95;5.65;;;28.70;73.30;;;;;;4995254;28;20116;-69
2022/05/23 10:58:40;;;;;;;19.55;5.30;;;28.80;71.50;;;;;;4977214;28;20112;-69
2022/05/23 11:01:19;;;;;;;10.10;4.68;;;28.90;72.70;;;;;;4957079;28;20141;-70
2022/05/23 11:04:23;;;;;;;13.98;5.93;;;28.90;74.60;;;;;;4974372;28;20050;-70
2022/05/23 11:06:59;;;;;;;13.23;5.63;;;29.00;77.20;;;;;;4973144;28;20069;-69
2022/05/23 11:09:50;;;;;;;17.17;5.97;;;29.30;77.30;;;;;;4984310;28;20041;-69
2022/05/23 11:12:29;;;;;;;16.60;6.45;;;29.50;76.60;;;;;;4991928;28;20054;-69
2022/05/23 11:15:35;;;;;;;10.32;5.05;;;29.60;69.80;;;;;;4990376;28;20049;-69
2022/05/23 11:18:12;;;;;;;15.35;5.70;;;29.60;69.00;;;;;;4974754;28;20138;-69
2022/05/23 11:20:40;;;;;;;;;;;29.50;71.40;;;;;;4972765;28;20165;-69
2022/05/23 11:23:31;;;;;;;15.85;6.72;;;29.20;69.20;;;;;;4972998;28;19932;-69
2022/05/23 11:26:22;;;;;;;12.85;5.70;;;28.90;71.50;;;;;;4973940;28;20073;-69
2022/05/23 11:33:41;;;;;;;15.23;6.93;;;28.40;76.80;;;;;;4971874;28;20157;-69
2022/05/23 11:35:10;;;;;;;13.18;5.50;;;28.10;76.00;;;;;;4974193;28;20165;-69
2022/05/23 11:37:44;;;;;;;14.05;6.15;;;27.70;77.40;;;;;;4970916;28;20081;-69
2022/05/23 11:40:33;;;;;;;14.48;5.13;;;27.40;79.10;;;;;;4975580;28;20113;-69
2022/05/23 11:43:10;;;;;;;16.13;6.43;;;27.10;79.60;;;;;;4991415;28;20476;-69
2022/05/23 11:51:25;;;;;;;10.63;5.78;;;26.00;84.30;;;;;;4994485;28;20486;-69
2022/05/23 11:53:59;;;;;;;11.55;6.07;;;25.60;87.80;;;;;;4991149;28;20058;-69
2022/05/23 11:56:51;;;;;;;7.88;5.63;;;25.40;90.50;;;;;;4992395;28;20238;-68
2022/05/23 11:59:24;;;;;;;13.40;6.03;;;25.00;93.20;;;;;;4993277;28;20053;-69
2022/05/23 12:02:06;;;;;;;14.45;5.15;;;24.70;96.70;;;;;;4991386;28;20336;-69
2022/05/23 12:04:52;;;;;;;12.50;6.05;;;24.40;99.90;;;;;;4991782;28;20653;-71
2022/05/23 12:07:36;;;;;;;17.65;6.95;;;24.10;99.90;;;;;;4992023;28;20042;-70
2022/05/23 12:10:22;;;;;;;13.13;6.80;;;23.80;99.90;;;;;;4983742;28;20451;-70
2022/05/23 12:12:52;;;;;;;16.10;7.32;;;23.30;99.90;;;;;;4973033;28;20057;-70
2022/05/23 12:15:44;;;;;;;28.92;9.07;;;22.90;99.90;;;;;;4973746;28;20152;-69
2022/05/23 12:18:19;;;;;;;23.02;9.73;;;22.40;99.90;;;;;;4991624;28;20081;-70
2022/05/23 12:21:01;;;;;;;38.92;9.80;;;21.90;99.90;;;;;;4992851;28;20053;-69
2022/05/23 12:23:42;;;;;;;41.05;10.65;;;21.40;99.90;;;;;;4991272;28;20048;-69
2022/05/23 12:26:09;;;;;;;30.40;9.90;;;20.90;99.90;;;;;;4994496;28;20050;-69
2022/05/23 12:29:10;;;;;;;35.58;10.27;;;20.40;99.90;;;;;;4976781;28;20049;-68
2022/05/23 12:32:15;;;;;;;21.77;8.38;;;20.00;99.90;;;;;;4991522;28;20053;-67
2022/05/23 12:34:47;;;;;;;28.48;10.25;;;19.40;99.90;;;;;;4994209;28;20522;-69
2022/05/23 12:37:28;;;;;;;26.85;9.00;;;19.10;99.90;;;;;;4993421;28;20080;-69
2022/05/23 12:40:01;;;;;;;21.10;9.02;;;18.90;99.90;;;;;;4989280;28;20050;-68
2022/05/23 12:42:53;;;;;;;23.10;7.95;;;18.80;99.90;;;;;;4973492;28;20074;-69
2022/05/23 12:45:45;;;;;;;19.13;8.07;;;18.80;99.90;;;;;;4971998;28;20042;-68
2022/05/23 12:48:37;;;;;;;20.02;8.57;;;18.90;99.90;;;;;;4973043;28;20047;-69
2022/05/23 12:51:14;;;;;;;18.98;10.43;;;19.20;99.90;;;;;;4974070;28;20730;-69
2022/05/23 12:53:59;;;;;;;;;;;19.40;99.90;;;;;;4974104;28;20046;-69
2022/05/23 12:57:03;;;;;;;30.75;10.98;;;19.60;99.90;;;;;;4973834;28;20330;-70
2022/05/23 12:59:48;;;;;;;21.20;9.68;;;19.60;99.90;;;;;;4972042;28;20061;-69
2022/05/23 13:02:26;;;;;;;30.30;11.13;;;19.60;99.90;;;;;;4973666;28;20042;-68
2022/05/23 13:05:06;;;;;;;32.45;12.50;;;19.70;99.90;;;;;;4984201;28;20046;-69
2022/05/23 13:07:40;;;;;;;18.38;9.45;;;19.90;99.90;;;;;;4992299;28;20588;-69
2022/05/23 13:10:11;;;;;;;25.63;11.38;;;20.00;99.90;;;;;;4977230;28;20053;-68
2022/05/23 13:12:44;;;;;;;17.95;10.15;;;20.10;99.90;;;;;;4991811;28;20139;-68
2022/05/23 13:15:31;;;;;;;19.30;10.27;;;20.30;99.90;;;;;;4972392;28;20052;-68
2022/05/23 13:23:53;;;;;;;26.33;9.77;;;20.50;99.90;;;;;;4989112;28;20069;-69
2022/05/23 13:26:25;;;;;;;18.15;10.75;;;20.70;99.90;;;;;;4971667;28;20368;-69
2022/05/23 13:29:12;;;;;;;16.42;10.00;;;21.00;99.90;;;;;;4988057;28;20038;-70
2022/05/23 13:31:39;;;;;;;29.13;10.38;;;21.40;99.90;;;;;;4990198;28;20498;-70
2022/05/23 13:34:10;;;;;;;18.80;9.70;;;21.70;99.90;;;;;;4990050;28;20045;-69
2022/05/23 13:36:46;;;;;;;20.83;8.20;;;21.90;99.90;;;;;;4992085;28;20860;-71
2022/05/23 13:39:22;;;;;;;16.00;8.27;;;22.10;99.90;;;;;;4992675;28;20450;-70
2022/05/23 13:41:49;;;;;;;16.63;7.95;;;22.10;99.90;;;;;;5008318;28;20133;-70
2022/05/23 13:44:28;;;;;;;16.73;7.70;;;22.00;99.90;;;;;;4990297;28;20120;-70
2022/05/23 13:47:01;;;;;;;24.48;7.78;;;22.00;99.90;;;;;;4978572;28;20052;-68
2022/05/23 13:49:35;;;;;;;20.00;10.00;;;21.90;99.90;;;;;;4994899;28;20045;-71
2022/05/23 13:52:18;;;;;;;30.75;10.60;;;21.90;99.90;;;;;;4995894;28;20077;-70
2022/05/23 13:54:54;;;;;;;20.17;9.20;;;21.80;99.90;;;;;;4994976;28;20054;-70
2022/05/23 13:57:33;;;;;;;15.57;9.05;;;21.80;99.90;;;;;;4994227;28;20651;-70
2022/05/23 14:00:12;;;;;;;17.67;8.50;;;21.80;99.90;;;;;;4994076;28;20057;-70
2022/05/23 14:02:46;;;;;;;19.55;8.35;;;21.80;99.90;;;;;;4996171;28;20402;-71
2022/05/23 14:05:13;;;;;;;17.80;8.75;;;21.70;99.90;;;;;;4994308;28;20050;-70
2022/05/23 14:07:43;;;;;;;17.00;8.60;;;21.80;99.90;;;;;;4992268;28;20326;-71
2022/05/23 14:10:16;;;;;;;12.35;7.90;;;21.80;99.90;;;;;;4992840;28;20045;-71
2022/05/23 14:12:47;;;;;;;21.73;9.43;;;21.80;99.90;;;;;;4993868;28;20052;-71
2022/05/23 14:15:19;;;;;;;15.18;9.35;;;21.80;99.90;;;;;;4992316;28;20109;-71
2022/05/23 14:17:49;;;;;;;21.50;8.95;;;21.80;99.90;;;;;;4990772;28;20042;-70
2022/05/23 14:20:35;;;;;;;25.38;9.73;;;21.70;99.90;;;;;;4993789;28;20042;-70
2022/05/23 14:23:09;;;;;;;20.55;8.73;;;21.60;99.90;;;;;;4995203;28;20309;-71
2022/05/23 14:25:43;;;;;;;17.73;7.28;;;21.50;99.90;;;;;;4995213;28;20069;-71
2022/05/23 14:28:14;;;;;;;14.85;6.00;;;21.40;99.90;;;;;;4994475;28;20117;-71